createdAt,value
2018-11-06T00:01:09.604Z,5.20
2018-11-06T00:03:44.815Z,5.26
2018-11-06T00:06:15.275Z,5.30
2018-11-06T00:08:45.647Z,5.30
2018-11-06T00:11:16.028Z,5.28
2018-11-06T00:13:46.575Z,5.31
2018-11-06T00:16:16.924Z,5.36
2018-11-06T00:18:47.259Z,5.39
2018-11-06T00:21:17.555Z,5.38
2018-11-06T00:23:48.054Z,5.37
2018-11-06T00:26:18.204Z,5.34
2018-11-06T00:28:48.714Z,5.29
2018-11-06T00:31:19.295Z,5.39
2018-11-06T00:33:49.852Z,5.39
2018-11-06T00:36:20.271Z,5.37
2018-11-06T00:38:50.735Z,5.43
2018-11-06T00:41:20.991Z,5.42
2018-11-06T00:43:53.981Z,5.41
2018-11-06T00:46:24.318Z,5.39
2018-11-06T00:48:54.692Z,5.25
2018-11-06T00:51:25.004Z,5.38
2018-11-06T00:53:55.345Z,5.47
2018-11-06T00:56:25.642Z,5.36
2018-11-06T00:58:56.012Z,5.35
2018-11-06T01:01:26.422Z,5.32
2018-11-06T01:04:01.865Z,5.40
2018-11-06T01:06:32.072Z,5.46
2018-11-06T01:09:02.463Z,5.54
2018-11-06T01:11:32.951Z,5.53
2018-11-06T01:14:03.557Z,5.56
2018-11-06T01:16:34.140Z,5.60
2018-11-06T01:19:04.517Z,5.59
2018-11-06T01:21:34.975Z,5.57
2018-11-06T01:24:05.525Z,5.54
2018-11-06T01:26:36.031Z,5.52
2018-11-06T01:29:06.918Z,5.51
2018-11-06T01:31:37.316Z,5.46
2018-11-06T01:34:07.805Z,5.50
2018-11-06T01:36:38.046Z,5.58
2018-11-06T01:39:10.347Z,5.55
2018-11-06T01:41:40.791Z,5.50
2018-11-06T01:44:11.269Z,5.53
2018-11-06T01:46:42.123Z,5.59
2018-11-06T01:49:12.633Z,5.57
2018-11-06T01:51:43.043Z,5.68
2018-11-06T01:54:13.499Z,5.50
2018-11-06T01:56:43.984Z,5.39
2018-11-06T01:59:14.363Z,5.40
2018-11-06T02:01:44.739Z,5.43
2018-11-06T02:04:14.999Z,5.24
2018-11-06T02:06:45.393Z,5.23
2018-11-06T02:09:15.953Z,5.29
2018-11-06T02:11:46.445Z,5.38
2018-11-06T02:14:16.814Z,5.35
2018-11-06T02:16:46.986Z,5.35
2018-11-06T02:19:17.360Z,5.34
2018-11-06T02:21:47.666Z,5.31
2018-11-06T02:24:18.151Z,5.34
2018-11-06T02:26:48.505Z,5.31
2018-11-06T02:29:19.739Z,5.48
2018-11-06T02:31:50.096Z,5.50
2018-11-06T02:34:21.075Z,5.58
2018-11-06T02:36:51.445Z,5.53
2018-11-06T02:39:22.005Z,5.45
2018-11-06T02:41:52.541Z,5.45
2018-11-06T02:44:22.931Z,5.39
2018-11-06T02:46:53.563Z,5.47
2018-11-06T02:49:24.106Z,5.39
2018-11-06T02:51:54.329Z,5.38
2018-11-06T02:54:24.705Z,5.24
2018-11-06T02:56:55.161Z,5.31
2018-11-06T02:59:25.676Z,5.28
2018-11-06T03:01:56.003Z,5.20
2018-11-06T03:04:26.336Z,5.21
2018-11-06T03:06:56.647Z,5.21
2018-11-06T03:09:27.026Z,5.30
2018-11-06T03:11:57.696Z,5.33
2018-11-06T03:14:27.900Z,5.31
2018-11-06T03:16:58.494Z,5.34
2018-11-06T03:19:28.746Z,5.36
2018-11-06T03:21:59.196Z,5.41
2018-11-06T03:24:29.694Z,5.41
2018-11-06T03:27:01.011Z,5.40
2018-11-06T03:29:31.291Z,5.42
2018-11-06T03:32:01.666Z,5.42
2018-11-06T03:37:08.581Z,5.30
2018-11-06T03:39:38.838Z,5.35
2018-11-06T03:42:09.198Z,5.29
2018-11-06T03:44:39.827Z,5.23
2018-11-06T03:47:10.083Z,5.21
2018-11-06T03:49:40.337Z,5.28
2018-11-06T03:52:10.723Z,5.23
2018-11-06T03:54:41.314Z,5.32
2018-11-06T03:57:11.852Z,5.39
2018-11-06T03:59:42.405Z,5.37
2018-11-06T04:02:12.728Z,5.28
2018-11-06T04:04:43.114Z,5.23
2018-11-06T04:07:13.439Z,5.15
2018-11-06T04:09:43.676Z,5.05
2018-11-06T04:12:14.067Z,5.12
2018-11-06T04:14:43.786Z,5.12
2018-11-06T04:17:14.013Z,4.98
2018-11-06T04:19:44.399Z,4.91
2018-11-06T04:22:14.786Z,4.85
2018-11-06T04:24:45.136Z,4.79
2018-11-06T04:27:15.547Z,4.76
2018-11-06T04:29:46.021Z,4.83
2018-11-06T04:32:16.517Z,4.92
2018-11-06T04:34:47.024Z,4.97
2018-11-06T04:37:17.348Z,4.99
2018-11-06T04:39:47.825Z,4.94
2018-11-06T04:42:18.164Z,4.92
2018-11-06T04:44:48.731Z,4.85
2018-11-06T04:47:19.317Z,4.79
2018-11-06T04:49:49.673Z,4.75
2018-11-06T04:52:20.027Z,4.72
2018-11-06T04:54:50.347Z,4.69
2018-11-06T04:57:20.929Z,4.60
2018-11-06T04:59:51.412Z,4.61
2018-11-06T05:02:21.864Z,4.65
2018-11-06T05:04:52.447Z,4.67
2018-11-06T05:07:22.720Z,4.64
2018-11-06T05:09:53.003Z,4.58
2018-11-06T05:12:23.277Z,4.53
2018-11-06T05:14:53.771Z,4.48
2018-11-06T05:17:23.956Z,4.48
2018-11-06T05:19:54.316Z,4.53
2018-11-06T05:22:24.691Z,4.58
2018-11-06T05:24:55.273Z,4.52
2018-11-06T05:27:25.835Z,4.43
2018-11-06T05:29:56.278Z,4.53
2018-11-06T05:32:26.648Z,4.54
2018-11-06T05:34:57.119Z,4.64
2018-11-06T05:37:27.637Z,4.78
2018-11-06T05:40:14.526Z,4.77
2018-11-06T05:42:44.731Z,4.70
2018-11-06T05:45:15.387Z,4.64
2018-11-06T05:47:45.448Z,4.64
2018-11-06T05:50:15.512Z,4.64
2018-11-06T05:52:45.639Z,4.59
2018-11-06T05:55:15.808Z,4.62
2018-11-06T05:57:45.811Z,4.52
2018-11-06T06:00:15.916Z,4.56
2018-11-06T06:02:46.358Z,4.63
2018-11-06T06:05:16.735Z,4.62
2018-11-06T06:07:47.194Z,4.60
2018-11-06T06:10:17.647Z,4.52
2018-11-06T06:12:48.093Z,4.39
2018-11-06T06:15:18.493Z,4.34
2018-11-06T06:17:48.824Z,4.36
2018-11-06T06:20:19.259Z,4.41
2018-11-06T06:22:49.751Z,4.62
2018-11-06T06:25:20.163Z,4.75
2018-11-06T06:27:50.536Z,4.81
2018-11-06T06:30:21.117Z,4.84
2018-11-06T06:32:51.599Z,4.80
2018-11-06T06:35:22.188Z,4.72
2018-11-06T06:37:52.580Z,4.77
2018-11-06T06:40:23.041Z,4.84
2018-11-06T06:42:53.305Z,4.88
2018-11-06T06:45:24.638Z,4.92
2018-11-06T06:47:54.959Z,4.97
2018-11-06T06:50:25.460Z,4.96
2018-11-06T06:52:55.662Z,4.99
2018-11-06T06:55:26.015Z,4.90
2018-11-06T06:57:56.460Z,4.88
2018-11-06T07:00:26.891Z,5.02
2018-11-06T07:02:57.082Z,5.05
2018-11-06T07:05:27.652Z,5.21
2018-11-06T07:07:57.960Z,5.62
2018-11-06T07:10:28.847Z,6.50
2018-11-06T07:12:59.445Z,7.37
2018-11-06T07:15:29.784Z,7.85
2018-11-06T07:18:00.191Z,8.09
2018-11-06T07:20:30.510Z,8.24
2018-11-06T07:23:00.741Z,8.67
2018-11-06T07:25:31.110Z,8.99
2018-11-06T07:28:01.355Z,9.17
2018-11-06T07:30:31.968Z,9.11
2018-11-06T07:33:02.593Z,9.44
2018-11-06T07:35:34.074Z,9.63
2018-11-06T07:38:04.351Z,9.92
2018-11-06T07:40:34.883Z,10.51
2018-11-06T07:43:05.220Z,10.33
2018-11-06T07:45:35.667Z,10.59
2018-11-06T07:48:06.201Z,10.56
2018-11-06T07:50:36.527Z,10.50
2018-11-06T07:53:07.033Z,10.78
2018-11-06T07:55:38.023Z,10.79
2018-11-06T07:58:08.533Z,10.87
2018-11-06T08:00:39.015Z,11.45
2018-11-06T08:03:09.479Z,11.24
2018-11-06T08:05:39.856Z,10.91
2018-11-06T08:08:10.199Z,10.71
2018-11-06T08:10:40.674Z,10.90
2018-11-06T08:13:11.095Z,10.55
2018-11-06T08:15:41.705Z,10.71
2018-11-06T08:18:11.936Z,10.92
2018-11-06T08:20:42.291Z,10.53
2018-11-06T08:23:12.519Z,10.36
2018-11-06T08:25:42.847Z,10.47
2018-11-06T08:28:13.190Z,10.61
2018-11-06T08:30:43.696Z,10.53
2018-11-06T08:33:14.132Z,10.36
2018-11-06T08:35:44.477Z,10.86
2018-11-06T08:38:14.663Z,10.92
2018-11-06T08:40:45.150Z,11.55
2018-11-06T08:43:15.563Z,11.77
2018-11-06T08:45:45.805Z,11.47
2018-11-06T08:48:16.080Z,11.82
2018-11-06T08:50:46.616Z,11.99
2018-11-06T08:53:17.200Z,12.23
2018-11-06T08:55:47.743Z,12.27
2018-11-06T08:58:18.064Z,12.52
2018-11-06T09:00:48.485Z,12.38
2018-11-06T09:03:18.841Z,12.48
2018-11-06T09:05:49.264Z,12.39
2018-11-06T09:08:19.648Z,12.44
2018-11-06T09:10:49.905Z,12.22
2018-11-06T09:13:20.271Z,11.89
2018-11-06T09:15:50.824Z,11.70
2018-11-06T09:18:21.279Z,11.59
2018-11-06T09:20:51.815Z,11.79
2018-11-06T09:23:22.008Z,11.61
2018-11-06T09:25:52.400Z,11.65
2018-11-06T09:28:22.895Z,11.84
2018-11-06T09:30:53.576Z,11.84
2018-11-06T09:33:23.963Z,12.04
2018-11-06T09:35:54.191Z,11.97
2018-11-06T09:38:24.590Z,12.13
2018-11-06T09:40:55.052Z,12.24
2018-11-06T09:43:25.385Z,12.12
2018-11-06T09:45:55.951Z,12.11
2018-11-06T09:48:26.223Z,12.27
2018-11-06T09:50:56.698Z,12.43
2018-11-06T09:53:27.013Z,12.52
2018-11-06T09:55:57.462Z,12.51
2018-11-06T09:58:27.835Z,12.63
2018-11-06T10:00:58.309Z,12.69
2018-11-06T10:03:28.610Z,12.72
2018-11-06T10:05:59.173Z,12.69
2018-11-06T10:08:31.550Z,12.70
2018-11-06T10:11:02.107Z,12.75
2018-11-06T10:13:32.691Z,12.75
2018-11-06T10:16:03.048Z,12.72
2018-11-06T10:18:33.325Z,12.93
2018-11-06T10:21:03.825Z,12.86
2018-11-06T10:23:34.302Z,12.97
2018-11-06T10:26:04.898Z,13.09
2018-11-06T10:28:35.473Z,13.16
2018-11-06T10:31:06.158Z,13.02
2018-11-06T10:33:36.640Z,13.18
2018-11-06T10:36:07.199Z,13.20
2018-11-06T10:38:37.488Z,13.18
2018-11-06T10:41:08.096Z,13.34
2018-11-06T10:43:38.638Z,13.33
2018-11-06T10:46:10.085Z,13.44
2018-11-06T10:48:40.898Z,13.45
2018-11-06T10:51:11.411Z,13.43
2018-11-06T10:53:41.719Z,13.28
2018-11-06T10:56:13.032Z,13.29
2018-11-06T10:58:44.226Z,13.36
2018-11-06T11:01:19.716Z,13.34
2018-11-06T11:03:55.025Z,13.39
2018-11-06T11:06:25.383Z,13.26
2018-11-06T11:08:55.699Z,13.42
2018-11-06T11:11:26.143Z,13.43
2018-11-06T11:13:56.503Z,13.40
2018-11-06T11:16:27.039Z,13.41
2018-11-06T11:18:57.260Z,13.26
2018-11-06T11:21:27.772Z,13.48
2018-11-06T11:23:58.255Z,13.50
2018-11-06T11:26:28.820Z,13.62
2018-11-06T11:28:59.427Z,13.68
2018-11-06T11:31:30.028Z,13.70
2018-11-06T11:34:00.270Z,13.62
2018-11-06T11:36:30.743Z,13.58
2018-11-06T11:39:01.129Z,13.62
2018-11-06T11:41:31.630Z,13.76
2018-11-06T11:44:02.172Z,13.79
2018-11-06T11:46:32.384Z,13.77
2018-11-06T11:49:02.972Z,13.88
2018-11-06T11:51:33.479Z,13.95
2018-11-06T11:54:03.850Z,14.13
2018-11-06T11:56:34.300Z,14.13
2018-11-06T11:59:05.235Z,14.21
2018-11-06T12:01:35.587Z,14.31
2018-11-06T12:04:06.707Z,14.49
2018-11-06T12:06:36.928Z,14.55
2018-11-06T12:09:10.267Z,14.53
2018-11-06T12:11:40.862Z,14.60
2018-11-06T12:14:11.339Z,14.52
2018-11-06T12:16:41.884Z,14.51
2018-11-06T12:19:12.348Z,14.55
2018-11-06T12:21:42.836Z,14.44
2018-11-06T12:24:13.377Z,14.48
2018-11-06T12:26:43.774Z,14.51
2018-11-06T12:29:14.054Z,14.51
2018-11-06T12:31:44.814Z,14.57
2018-11-06T12:34:15.249Z,14.56
2018-11-06T12:36:45.603Z,14.65
2018-11-06T12:39:16.219Z,14.76
2018-11-06T12:41:46.762Z,14.80
2018-11-06T12:44:17.180Z,14.79
2018-11-06T12:46:47.427Z,14.89
2018-11-06T12:49:17.988Z,14.96
2018-11-06T12:51:48.401Z,14.93
2018-11-06T12:54:18.788Z,15.07
2018-11-06T12:56:49.072Z,15.14
2018-11-06T12:59:19.649Z,15.05
2018-11-06T13:01:50.239Z,15.08
2018-11-06T13:04:20.804Z,15.15
2018-11-06T13:06:51.279Z,15.14
2018-11-06T13:09:21.540Z,15.20
2018-11-06T13:11:51.903Z,15.12
2018-11-06T13:14:22.309Z,15.33
2018-11-06T13:16:52.910Z,15.24
2018-11-06T13:19:23.418Z,15.23
2018-11-06T13:21:53.827Z,15.36
2018-11-06T13:24:24.151Z,15.34
2018-11-06T13:26:54.662Z,15.25
2018-11-06T13:29:25.094Z,15.25
2018-11-06T13:31:55.595Z,15.23
2018-11-06T13:34:26.055Z,15.17
2018-11-06T13:36:56.658Z,15.10
2018-11-06T13:39:26.948Z,15.15
2018-11-06T13:41:57.317Z,15.06
2018-11-06T13:44:28.000Z,14.90
2018-11-06T13:46:58.862Z,14.87
2018-11-06T13:49:29.185Z,14.71
2018-11-06T13:51:59.589Z,14.58
2018-11-06T13:54:30.039Z,14.66
2018-11-06T13:57:00.263Z,14.61
2018-11-06T13:59:30.673Z,14.57
2018-11-06T14:02:01.216Z,14.51
2018-11-06T14:04:31.662Z,14.67
2018-11-06T14:07:02.407Z,14.63
2018-11-06T14:09:32.596Z,14.58
2018-11-06T14:12:02.873Z,14.46
2018-11-06T14:14:33.289Z,14.37
2018-11-06T14:17:03.675Z,14.22
2018-11-06T14:19:34.066Z,14.23
2018-11-06T14:22:04.440Z,14.14
2018-11-06T14:24:34.698Z,14.13
2018-11-06T14:27:05.118Z,14.10
2018-11-06T14:29:35.344Z,13.83
2018-11-06T14:32:05.736Z,13.67
2018-11-06T14:34:36.326Z,13.75
2018-11-06T14:37:07.064Z,13.61
2018-11-06T14:39:37.480Z,13.60
2018-11-06T14:42:08.186Z,13.49
2018-11-06T14:44:38.544Z,13.40
2018-11-06T14:47:09.137Z,13.31
2018-11-06T14:49:39.632Z,13.41
2018-11-06T14:52:10.111Z,13.46
2018-11-06T14:54:40.603Z,13.47
2018-11-06T14:57:11.059Z,13.32
2018-11-06T14:59:42.340Z,13.25
2018-11-06T15:02:12.819Z,13.14
2018-11-06T15:04:43.228Z,12.98
2018-11-06T15:07:13.720Z,12.96
2018-11-06T15:09:44.188Z,12.84
2018-11-06T15:12:14.650Z,12.79
2018-11-06T15:14:45.131Z,12.83
2018-11-06T15:17:15.972Z,12.80
2018-11-06T15:19:46.427Z,12.76
2018-11-06T15:22:17.011Z,12.82
2018-11-06T15:24:47.516Z,12.79
2018-11-06T15:27:17.760Z,12.70
2018-11-06T15:29:48.144Z,12.65
2018-11-06T15:32:18.759Z,12.68
2018-11-06T15:34:49.215Z,12.81
2018-11-06T15:37:19.580Z,12.73
2018-11-06T15:39:49.972Z,12.60
2018-11-06T15:42:20.883Z,12.67
2018-11-06T15:44:51.324Z,12.53
2018-11-06T15:47:21.756Z,12.56
2018-11-06T15:49:52.207Z,12.41
2018-11-06T15:52:23.116Z,12.46
2018-11-06T15:54:53.565Z,12.44
2018-11-06T15:57:24.173Z,12.48
2018-11-06T15:59:54.675Z,12.51
2018-11-06T16:02:25.017Z,12.34
2018-11-06T16:04:55.404Z,12.40
2018-11-06T16:07:25.664Z,12.18
2018-11-06T16:09:56.178Z,12.16
2018-11-06T16:12:26.533Z,12.11
2018-11-06T16:14:56.807Z,12.10
2018-11-06T16:17:27.303Z,12.14
2018-11-06T16:19:57.768Z,12.15
2018-11-06T16:22:28.362Z,12.13
2018-11-06T16:24:58.774Z,12.04
2018-11-06T16:27:29.302Z,12.06
2018-11-06T16:30:00.026Z,11.97
2018-11-06T16:32:30.417Z,11.94
2018-11-06T16:35:00.889Z,11.98
2018-11-06T16:37:31.364Z,12.11
2018-11-06T16:40:01.841Z,11.95
2018-11-06T16:42:32.207Z,11.90
2018-11-06T16:45:02.668Z,11.85
2018-11-06T16:47:33.055Z,11.72
2018-11-06T16:50:03.481Z,11.78
2018-11-06T16:52:33.822Z,11.69
2018-11-06T16:55:04.235Z,11.66
2018-11-06T16:57:34.668Z,11.60
2018-11-06T17:00:05.642Z,11.62
2018-11-06T17:02:37.312Z,11.59
2018-11-06T17:05:09.889Z,11.60
2018-11-06T17:07:40.472Z,11.57
2018-11-06T17:10:12.655Z,11.53
2018-11-06T17:12:43.137Z,11.47
2018-11-06T17:15:17.075Z,11.55
2018-11-06T17:17:48.420Z,11.62
2018-11-06T17:20:19.241Z,11.51
2018-11-06T17:22:49.773Z,11.62
2018-11-06T17:25:21.279Z,11.66
2018-11-06T17:27:51.541Z,11.74
2018-11-06T17:30:22.004Z,11.73
2018-11-06T17:32:52.634Z,11.73
2018-11-06T17:35:23.091Z,11.65
2018-11-06T17:37:53.543Z,11.67
2018-11-06T17:40:23.831Z,11.70
2018-11-06T17:42:54.323Z,11.56
2018-11-06T17:45:25.397Z,11.43
2018-11-06T17:47:55.995Z,11.28
2018-11-06T17:50:26.347Z,11.17
2018-11-06T17:52:56.888Z,11.06
2018-11-06T17:55:27.379Z,10.90
2018-11-06T17:57:57.960Z,10.79
2018-11-06T18:00:28.446Z,10.77
2018-11-06T18:02:58.940Z,10.74
2018-11-06T18:05:29.379Z,10.74
2018-11-06T18:07:59.840Z,10.76
2018-11-06T18:10:31.055Z,10.89
2018-11-06T18:13:01.432Z,10.72
2018-11-06T18:15:32.060Z,10.66
2018-11-06T18:18:02.703Z,10.76
2018-11-06T18:20:32.860Z,10.72
2018-11-06T18:23:03.579Z,10.76
2018-11-06T18:25:33.974Z,10.83
2018-11-06T18:28:04.528Z,11.04
2018-11-06T18:30:34.924Z,11.09
2018-11-06T18:33:05.297Z,11.01
2018-11-06T18:35:35.555Z,11.00
2018-11-06T18:38:06.265Z,10.92
2018-11-06T18:40:36.660Z,10.81
2018-11-06T18:43:07.328Z,10.80
2018-11-06T18:45:37.834Z,10.62
2018-11-06T18:48:08.415Z,10.54
2018-11-06T18:50:38.627Z,10.46
2018-11-06T18:53:09.141Z,10.62
2018-11-06T18:55:39.529Z,10.59
2018-11-06T18:58:10.147Z,10.41
2018-11-06T19:00:40.390Z,10.34
2018-11-06T19:03:10.661Z,10.23
2018-11-06T19:05:41.155Z,10.21
2018-11-06T19:08:12.107Z,10.13
2018-11-06T19:10:42.680Z,10.06
2018-11-06T19:13:13.274Z,10.05
2018-11-06T19:15:43.601Z,10.05
2018-11-06T19:18:13.953Z,9.97
2018-11-06T19:20:44.325Z,9.97
2018-11-06T19:23:14.739Z,9.92
2018-11-06T19:25:45.320Z,9.94
2018-11-06T19:28:16.377Z,9.93
2018-11-06T19:30:46.896Z,9.88
2018-11-06T19:33:18.019Z,9.89
2018-11-06T19:35:48.549Z,9.96
2018-11-06T19:38:19.086Z,9.90
2018-11-06T19:40:49.453Z,9.79
2018-11-06T19:43:19.792Z,9.71
2018-11-06T19:45:50.279Z,9.61
2018-11-06T19:48:20.821Z,9.54
2018-11-06T19:50:51.571Z,9.40
2018-11-06T19:53:22.340Z,9.23
2018-11-06T19:55:52.680Z,9.09
2018-11-06T19:58:23.318Z,8.97
2018-11-06T20:00:53.699Z,8.91
2018-11-06T20:03:24.105Z,8.93
2018-11-06T20:05:54.693Z,9.04
2018-11-06T20:08:25.224Z,9.16
2018-11-06T20:10:55.645Z,9.14
2018-11-06T20:13:26.078Z,9.13
2018-11-06T20:15:56.482Z,9.13
2018-11-06T20:18:26.852Z,9.09
2018-11-06T20:20:57.352Z,9.06
2018-11-06T20:23:27.866Z,9.08
2018-11-06T20:25:58.340Z,9.00
2018-11-06T20:28:28.808Z,8.90
2018-11-06T20:30:59.060Z,8.83
2018-11-06T20:33:29.594Z,8.70
2018-11-06T20:36:00.012Z,8.59
2018-11-06T20:38:30.608Z,8.49
2018-11-06T20:41:01.106Z,8.43
2018-11-06T20:43:31.708Z,8.38
2018-11-06T20:46:02.110Z,8.34
2018-11-06T20:48:32.560Z,8.31
2018-11-06T20:51:03.139Z,8.38
2018-11-06T20:53:33.690Z,8.38
2018-11-06T20:56:04.174Z,8.38
2018-11-06T20:58:34.676Z,8.40
2018-11-06T21:01:05.192Z,8.46
2018-11-06T21:03:36.691Z,8.58
2018-11-06T21:06:07.137Z,8.56
2018-11-06T21:08:37.435Z,8.48
2018-11-06T21:11:07.988Z,8.52
2018-11-06T21:13:38.363Z,8.50
2018-11-06T21:16:08.674Z,8.47
2018-11-06T21:18:39.176Z,8.41
2018-11-06T21:21:13.516Z,8.37
2018-11-06T21:23:45.125Z,8.40
2018-11-06T21:26:15.595Z,8.48
2018-11-06T21:28:45.849Z,8.42
2018-11-06T21:31:16.201Z,8.40
2018-11-06T21:33:46.826Z,8.40
2018-11-06T21:36:16.987Z,8.22
2018-11-06T21:38:47.411Z,8.13
2018-11-06T21:41:17.862Z,8.07
2018-11-06T21:43:48.439Z,8.01
2018-11-06T21:46:18.757Z,7.88
2018-11-06T21:48:49.253Z,7.80
2018-11-06T21:51:19.593Z,7.71
2018-11-06T21:53:49.967Z,7.61
2018-11-06T21:56:20.481Z,7.55
2018-11-06T21:58:50.901Z,7.50
2018-11-06T22:01:21.101Z,7.45
2018-11-06T22:03:51.604Z,7.46
2018-11-06T22:06:22.088Z,7.40
2018-11-06T22:08:52.575Z,7.38
2018-11-06T22:11:23.157Z,7.31
2018-11-06T22:13:53.515Z,7.29
2018-11-06T22:16:23.938Z,7.40
2018-11-06T22:18:54.273Z,7.28
2018-11-06T22:21:24.633Z,7.23
2018-11-06T22:23:54.912Z,7.20
2018-11-06T22:26:25.331Z,7.29
2018-11-06T22:28:55.807Z,7.36
2018-11-06T22:31:26.409Z,7.43
2018-11-06T22:33:56.899Z,7.44
2018-11-06T22:36:27.296Z,7.40
2018-11-06T22:38:57.604Z,7.43
2018-11-06T22:41:28.007Z,7.44
2018-11-06T22:43:58.399Z,7.56
2018-11-06T22:46:28.648Z,7.48
2018-11-06T22:48:58.912Z,7.46
2018-11-06T22:51:29.239Z,7.66
2018-11-06T22:53:59.729Z,7.71
2018-11-06T22:56:30.179Z,7.66
2018-11-06T22:59:00.559Z,7.68
2018-11-06T23:01:30.845Z,7.58
2018-11-06T23:48:35.616Z,6.75
2018-11-06T23:51:05.973Z,6.72
2018-11-06T23:53:36.356Z,6.65
2018-11-06T23:56:06.683Z,6.62
2018-11-06T23:58:37.026Z,6.60
